Anacortes, Washington
Current Conditions -  °F | °C
As of 4:56 AM on Wednesday 22 Oct 2014 (Local Time) from KNUW Reporting Station
Broken Clouds Broken Clouds  
Wind Chill: 14°   Ceiling: 3500
Heat Index: 14°   Visibility: 10mi
Dew Point: 10°   Wind: 26mph
Humidity: 75%   Direction: 130°SE
Pressure: 29.62"   Gusts: 36mph
Location:  48.51°N, 122.61°W
Report Text: KNUW 221156Z 13023G31KT 10SM SCT020 BKN035 BKN070 14/10 A2962 RMK AO2 PK WND 14033/1146 RAB09E32 SLP033 P0000 60000 70001 T01440100 10161 20139 56001 $
Loading
Personal Weather Stations






























Interactive Weather Map
Tropical Storm Tracking
New forecast layout! Learn more

10-Day Weather Forecast

Advertisements
Track Severe Weather on mobile